Staunton, Virginia
Current Conditions -  °F | °C
As of 1:15 AM on Wednesday 22 Oct 2014 (Local Time) from KW13 Reporting Station
Overcast Overcast  
Wind Chill: 50°   Ceiling: 2900
Heat Index: 50°   Visibility: 10mi
Dew Point: 42°   Wind: 5mph
Humidity: 74%   Direction: 320°NW
Pressure: 29.94"   Gusts: NA
Location:  38.15°N, 79.07°W
Report Text: KW13 220515Z AUTO 32004KT 10SM OVC029 10/06 A2994 RMK AO1 T01000055
Loading
Personal Weather Stations






























Interactive Weather Map
Tropical Storm Tracking
New forecast layout! Learn more

10-Day Weather Forecast

Advertisements
Track Severe Weather on mobile